createdAt,value
2023-04-28T00:02:26.003Z,101685.69
2023-04-28T00:05:01.248Z,101672.13
2023-04-28T00:07:33.601Z,101673.56
2023-04-28T00:10:06.599Z,101675.16
2023-04-28T00:12:40.376Z,101668.75
2023-04-28T00:15:11.416Z,101663.31
2023-04-28T00:17:41.303Z,101667.53
2023-04-28T00:20:17.610Z,101661.63
2023-04-28T00:22:51.205Z,101653.88
2023-04-28T00:25:24.385Z,101655.59
2023-04-28T00:27:56.329Z,101653.69
2023-04-28T00:30:26.106Z,101650.97
2023-04-28T00:32:58.816Z,101640.41
2023-04-28T00:35:31.416Z,101639.63
2023-04-28T00:38:04.007Z,101639.63
2023-04-28T00:40:38.957Z,101638.50
2023-04-28T00:43:09.050Z,101633.22
2023-04-28T00:45:40.459Z,101626.16
2023-04-28T00:48:17.667Z,101624.19
2023-04-28T00:50:53.300Z,101626.56
2023-04-28T00:53:25.856Z,101617.94
2023-04-28T00:55:58.723Z,101620.56
2023-04-28T00:58:31.030Z,101602.78
2023-04-28T01:01:06.310Z,101599.38
2023-04-28T01:03:38.274Z,101595.84
2023-04-28T01:06:15.348Z,101589.81
2023-04-28T01:08:54.425Z,101585.41
2023-04-28T01:11:27.245Z,101586.59
2023-04-28T01:14:00.423Z,101588.41
2023-04-28T01:16:36.912Z,101579.38
2023-04-28T01:19:11.697Z,101579.28
2023-04-28T01:21:56.201Z,101595.94
2023-04-28T01:24:37.265Z,101588.81
2023-04-28T01:27:19.566Z,101580.19
2023-04-28T01:29:50.950Z,101564.09
2023-04-28T01:32:20.900Z,101574.16
2023-04-28T01:34:50.708Z,101579.78
2023-04-28T01:37:20.706Z,101583.09
2023-04-28T01:39:56.247Z,101575.16
2023-04-28T01:42:32.763Z,101565.13
2023-04-28T01:45:07.381Z,101554.28
2023-04-28T01:47:39.608Z,101550.50
2023-04-28T01:50:17.441Z,101541.31
2023-04-28T01:52:51.584Z,101544.63
2023-04-28T01:55:25.640Z,101533.13
2023-04-28T01:58:01.048Z,101519.13
2023-04-28T02:00:30.985Z,101519.94
2023-04-28T02:03:03.633Z,101525.16
2023-04-28T02:05:48.369Z,101515.91
2023-04-28T02:08:24.992Z,101522.94
2023-04-28T02:10:57.465Z,101507.97
2023-04-28T02:13:29.387Z,101499.84
2023-04-28T02:16:01.824Z,101497.38
2023-04-28T02:18:36.204Z,101490.28
2023-04-28T02:21:15.060Z,101487.66
2023-04-28T02:23:51.992Z,101473.88
2023-04-28T02:26:29.354Z,101475.31
2023-04-28T02:29:01.521Z,101473.66
2023-04-28T02:31:31.822Z,101471.97
2023-04-28T02:34:06.935Z,101474.78
2023-04-28T02:36:37.038Z,101464.97
2023-04-28T02:39:07.129Z,101460.91
2023-04-28T02:41:44.893Z,101461.47
2023-04-28T02:44:18.829Z,101452.72
2023-04-28T02:46:48.738Z,101457.84
2023-04-28T02:49:20.284Z,101448.97
2023-04-28T02:52:00.338Z,101442.56
2023-04-28T02:54:34.516Z,101442.63
2023-04-28T02:57:11.057Z,101447.59
2023-04-28T02:59:43.232Z,101440.22
2023-04-28T03:02:13.114Z,101433.75
2023-04-28T03:04:48.208Z,101432.75
2023-04-28T03:07:19.549Z,101422.63
2023-04-28T03:09:57.617Z,101421.47
2023-04-28T03:12:44.486Z,101419.84
2023-04-28T03:15:14.801Z,101410.13
2023-04-28T03:17:46.087Z,101396.78
2023-04-28T03:20:17.216Z,101403.00
2023-04-28T03:22:49.555Z,101399.66
2023-04-28T03:25:21.340Z,101398.94
2023-04-28T03:27:57.993Z,101399.78
2023-04-28T03:30:31.846Z,101402.38
2023-04-28T03:33:10.279Z,101391.00
2023-04-28T03:35:45.635Z,101377.94
2023-04-28T03:38:18.525Z,101372.53
2023-04-28T03:40:53.427Z,101373.19
2023-04-28T03:43:29.927Z,101374.81
2023-04-28T03:45:59.894Z,101375.31
2023-04-28T03:48:32.314Z,101355.69
2023-04-28T03:51:05.036Z,101346.78
2023-04-28T03:53:39.115Z,101352.06
2023-04-28T03:56:13.670Z,101350.47
2023-04-28T03:58:46.268Z,101347.94
2023-04-28T04:01:17.242Z,101350.00
2023-04-28T04:03:53.589Z,101342.78
2023-04-28T04:06:25.956Z,101350.00
2023-04-28T04:08:55.789Z,101344.69
2023-04-28T04:11:26.132Z,101350.00
2023-04-28T04:13:58.585Z,101349.38
2023-04-28T04:16:29.593Z,101340.88
2023-04-28T04:18:59.448Z,101342.28
2023-04-28T04:21:29.445Z,101338.44
2023-04-28T04:24:01.597Z,101334.31
2023-04-28T04:26:34.197Z,101330.06
2023-04-28T04:29:06.697Z,101331.22
2023-04-28T04:31:38.975Z,101332.44
2023-04-28T04:34:14.856Z,101331.72
2023-04-28T04:36:45.978Z,101325.28
2023-04-28T04:39:21.891Z,101317.97
2023-04-28T04:41:51.722Z,101321.66
2023-04-28T04:44:28.401Z,101317.22
2023-04-28T04:46:59.358Z,101311.09
2023-04-28T04:49:32.058Z,101317.06
2023-04-28T04:52:01.900Z,101313.13
2023-04-28T04:54:31.776Z,101314.69
2023-04-28T04:57:02.042Z,101314.13
2023-04-28T04:59:34.427Z,101317.06
2023-04-28T05:02:04.330Z,101320.66
2023-04-28T05:04:36.052Z,101321.75
2023-04-28T05:07:06.088Z,101314.97
2023-04-28T05:09:35.985Z,101313.97
2023-04-28T05:12:05.915Z,101311.72
2023-04-28T05:14:38.316Z,101295.94
2023-04-28T05:17:08.181Z,101296.09
2023-04-28T05:19:39.676Z,101299.75
2023-04-28T05:22:09.480Z,101291.34
2023-04-28T05:24:39.272Z,101284.06
2023-04-28T05:27:11.842Z,101289.88
2023-04-28T05:29:47.415Z,101273.78
2023-04-28T05:32:19.979Z,101272.97
2023-04-28T05:34:49.942Z,101270.16
2023-04-28T05:37:19.889Z,101268.94
2023-04-28T05:39:51.264Z,101253.81
2023-04-28T05:42:24.296Z,101261.56
2023-04-28T05:44:56.789Z,101259.72
2023-04-28T05:47:26.745Z,101259.59
2023-04-28T05:50:00.465Z,101265.97
2023-04-28T05:52:32.111Z,101261.06
2023-04-28T05:55:05.523Z,101259.94
2023-04-28T05:57:45.661Z,101252.66
2023-04-28T06:00:34.349Z,101258.53
2023-04-28T06:03:04.488Z,101261.34
2023-04-28T06:05:42.031Z,101253.72
2023-04-28T06:08:14.517Z,101257.25
2023-04-28T06:10:45.984Z,101249.72
2023-04-28T06:13:21.991Z,101245.88
2023-04-28T06:15:56.957Z,101249.38
2023-04-28T06:18:34.916Z,101246.75
2023-04-28T06:21:04.837Z,101250.66
2023-04-28T06:23:41.481Z,101251.25
2023-04-28T06:26:18.437Z,101240.44
2023-04-28T06:28:48.775Z,101228.69
2023-04-28T06:31:21.353Z,101227.06
2023-04-28T06:33:53.977Z,101224.59
2023-04-28T06:36:28.192Z,101225.88
2023-04-28T06:38:59.067Z,101226.84
2023-04-28T06:41:29.430Z,101218.16
2023-04-28T06:43:59.269Z,101228.50
2023-04-28T06:46:33.621Z,101236.94
2023-04-28T06:49:03.506Z,101238.16
2023-04-28T06:51:37.034Z,101226.34
2023-04-28T06:54:09.660Z,101231.25
2023-04-28T06:56:39.493Z,101230.25
2023-04-28T06:59:12.436Z,101222.03
2023-04-28T07:01:48.193Z,101227.44
2023-04-28T07:04:23.806Z,101216.81
2023-04-28T07:06:53.988Z,101221.28
2023-04-28T07:09:23.821Z,101211.28
2023-04-28T07:11:53.660Z,101215.63
2023-04-28T07:14:25.069Z,101205.38
2023-04-28T07:16:57.766Z,101213.44
2023-04-28T07:19:27.590Z,101211.09
2023-04-28T07:21:57.446Z,101210.28
2023-04-28T07:24:27.591Z,101212.56
2023-04-28T07:26:59.781Z,101202.41
2023-04-28T07:29:34.413Z,101207.41
2023-04-28T07:32:11.216Z,101208.16
2023-04-28T07:34:46.698Z,101198.72
2023-04-28T07:37:17.841Z,101213.31
2023-04-28T07:39:47.850Z,101197.38
2023-04-28T07:42:19.280Z,101199.47
2023-04-28T07:44:49.149Z,101196.03
2023-04-28T07:47:21.661Z,101196.78
2023-04-28T07:49:51.494Z,101191.81
2023-04-28T07:52:21.396Z,101188.81
2023-04-28T07:54:51.375Z,101190.91
2023-04-28T07:57:21.295Z,101174.06
2023-04-28T07:59:51.145Z,101185.78
2023-04-28T08:02:23.721Z,101193.88
2023-04-28T08:04:57.043Z,101184.22
2023-04-28T08:07:27.073Z,101180.28
2023-04-28T08:09:57.375Z,101169.66
2023-04-28T08:12:27.298Z,101172.53
2023-04-28T08:14:57.096Z,101172.75
2023-04-28T08:17:29.553Z,101173.72
2023-04-28T08:19:59.550Z,101172.13
2023-04-28T08:22:29.526Z,101161.94
2023-04-28T08:24:59.351Z,101166.44
2023-04-28T08:27:29.213Z,101171.81
2023-04-28T08:29:59.025Z,101177.63
2023-04-28T08:32:34.542Z,101180.59
2023-04-28T08:35:05.075Z,101184.31
2023-04-28T08:37:35.998Z,101184.84
2023-04-28T08:40:10.225Z,101177.44
2023-04-28T08:42:41.136Z,101173.06
2023-04-28T08:45:15.958Z,101182.91
2023-04-28T08:47:50.182Z,101176.56
2023-04-28T08:50:24.919Z,101164.78
2023-04-28T08:52:55.873Z,101166.16
2023-04-28T08:55:26.700Z,101165.31
2023-04-28T08:57:57.716Z,101167.84
2023-04-28T09:00:28.433Z,101148.78
2023-04-28T09:03:01.037Z,101153.34
2023-04-28T09:05:37.228Z,101146.91
2023-04-28T09:08:07.562Z,101150.31
2023-04-28T09:10:38.313Z,101137.56
2023-04-28T09:13:08.266Z,101131.41
2023-04-28T09:15:41.278Z,101138.78
2023-04-28T09:18:19.028Z,101133.84
2023-04-28T09:20:48.872Z,101131.13
2023-04-28T09:23:20.530Z,101125.56
2023-04-28T09:26:01.666Z,101125.06
2023-04-28T09:28:31.830Z,101116.22
2023-04-28T09:31:01.808Z,101117.97
2023-04-28T09:33:34.578Z,101109.53
2023-04-28T09:36:04.464Z,101109.91
2023-04-28T09:38:34.259Z,101117.84
2023-04-28T09:41:05.433Z,101102.56
2023-04-28T09:43:37.249Z,101102.59
2023-04-28T09:46:08.744Z,101104.44
2023-04-28T09:48:41.746Z,101090.59
2023-04-28T09:51:13.174Z,101092.94
2023-04-28T09:53:44.406Z,101084.91
2023-04-28T09:56:14.373Z,101075.38
2023-04-28T09:58:46.996Z,101075.88
2023-04-28T10:01:17.647Z,101074.56
2023-04-28T10:03:55.721Z,101063.19
2023-04-28T10:06:25.994Z,101058.53
2023-04-28T10:08:55.763Z,101061.22
2023-04-28T10:11:25.741Z,101057.47
2023-04-28T10:13:56.890Z,101055.09
2023-04-28T10:16:27.381Z,101050.09
2023-04-28T10:19:00.680Z,101055.09
2023-04-28T10:21:32.611Z,101053.63
2023-04-28T10:24:13.663Z,101050.88
2023-04-28T10:27:06.471Z,101047.47
2023-04-28T10:29:36.998Z,101046.31
2023-04-28T10:32:21.189Z,101037.56
2023-04-28T10:34:53.713Z,101031.81
2023-04-28T10:37:43.922Z,101043.56
2023-04-28T10:40:34.754Z,101043.72
2023-04-28T10:43:05.040Z,101042.41
2023-04-28T10:46:02.927Z,101043.00
2023-04-28T10:48:58.161Z,101053.09
2023-04-28T10:51:39.835Z,101048.66
2023-04-28T10:54:22.219Z,101046.19
2023-04-28T10:57:33.676Z,101040.22
2023-04-28T11:00:31.262Z,101049.53
2023-04-28T11:03:01.283Z,101045.22
2023-04-28T11:05:35.152Z,101029.34
2023-04-28T11:08:36.968Z,101018.19
2023-04-28T11:11:24.555Z,101028.88
2023-04-28T11:13:55.088Z,101021.88
2023-04-28T11:16:28.866Z,101019.91
2023-04-28T11:19:05.140Z,101022.31
2023-04-28T11:21:35.854Z,101026.63
2023-04-28T11:24:13.055Z,101009.91
2023-04-28T11:26:43.953Z,101001.09
2023-04-28T11:29:16.082Z,101009.94
2023-04-28T11:31:53.314Z,101008.97
2023-04-28T11:34:24.489Z,101013.47
2023-04-28T11:36:55.090Z,101014.50
2023-04-28T11:39:33.396Z,101026.69
2023-04-28T11:42:05.140Z,101028.44
2023-04-28T11:44:35.016Z,101015.03
2023-04-28T11:47:06.781Z,101009.69
2023-04-28T11:49:47.501Z,101005.31
2023-04-28T11:52:17.316Z,101002.50
2023-04-28T11:54:56.799Z,101002.53
2023-04-28T11:57:27.011Z,101009.38
2023-04-28T11:59:57.144Z,101002.97
2023-04-28T12:02:32.109Z,100988.22
2023-04-28T12:05:11.874Z,100985.50
2023-04-28T12:07:46.050Z,100985.50
2023-04-28T12:10:20.104Z,100992.44
2023-04-28T12:12:53.203Z,100996.91
2023-04-28T12:15:25.117Z,100992.44
2023-04-28T12:17:55.020Z,100983.72
2023-04-28T12:20:39.242Z,100992.28
2023-04-28T12:23:09.657Z,100985.19
2023-04-28T12:25:49.477Z,100984.44
2023-04-28T12:28:19.428Z,100987.72
2023-04-28T12:30:49.348Z,101000.78
2023-04-28T12:33:27.296Z,100996.66
2023-04-28T12:36:04.086Z,100986.38
2023-04-28T12:38:33.977Z,100978.13
2023-04-28T12:41:08.094Z,100985.31
2023-04-28T12:43:37.939Z,100975.81
2023-04-28T12:46:08.903Z,100976.81
2023-04-28T12:48:38.820Z,100970.84
2023-04-28T12:51:10.762Z,100970.91
2023-04-28T12:53:40.564Z,100957.50
2023-04-28T12:56:18.656Z,100952.75
2023-04-28T12:58:50.964Z,100959.50
2023-04-28T13:01:23.626Z,100958.06
2023-04-28T13:04:00.950Z,100962.91
2023-04-28T13:06:31.298Z,100958.59
2023-04-28T13:09:09.956Z,100953.31
2023-04-28T13:11:46.043Z,100953.63
2023-04-28T13:14:17.734Z,100954.56
2023-04-28T13:16:50.032Z,100954.56
2023-04-28T13:19:19.829Z,100952.72
2023-04-28T13:21:50.234Z,100956.16
2023-04-28T13:24:20.012Z,100946.88
2023-04-28T13:26:52.779Z,100943.09
2023-04-28T13:29:22.800Z,100951.31
2023-04-28T13:31:55.074Z,100943.53
2023-04-28T13:34:26.605Z,100936.41
2023-04-28T13:36:59.069Z,100947.66
2023-04-28T13:39:28.901Z,100938.47
2023-04-28T13:42:01.873Z,100945.38
2023-04-28T13:44:34.660Z,100952.03
2023-04-28T13:47:08.121Z,100962.00
2023-04-28T13:49:45.868Z,100964.78
2023-04-28T13:52:17.202Z,100964.22
2023-04-28T14:05:52.965Z,100988.25
2023-04-28T14:08:24.867Z,100987.56
2023-04-28T14:10:59.402Z,100979.63
2023-04-28T14:13:29.972Z,100973.34
2023-04-28T14:16:02.890Z,100960.16
2023-04-28T14:18:55.262Z,100953.00
2023-04-28T14:21:29.612Z,100932.31
2023-04-28T14:23:59.400Z,100915.41
2023-04-28T14:26:35.747Z,100913.28
2023-04-28T14:29:10.848Z,100922.25
2023-04-28T14:31:43.517Z,100935.41
2023-04-28T14:34:20.132Z,100930.91
2023-04-28T14:36:53.120Z,100924.88
2023-04-28T14:39:28.930Z,100917.13
2023-04-28T14:41:58.877Z,100912.78
2023-04-28T14:44:31.030Z,100908.28
2023-04-28T14:47:01.660Z,100894.91
2023-04-28T14:49:35.563Z,100904.78
2023-04-28T14:52:08.403Z,100900.63
2023-04-28T14:54:42.198Z,100905.22
2023-04-28T14:57:20.228Z,100892.91
2023-04-28T14:59:52.027Z,100897.31
2023-04-28T15:02:29.052Z,100905.31
2023-04-28T15:05:04.668Z,100893.84
2023-04-28T15:07:37.287Z,100889.72
2023-04-28T15:10:10.554Z,100881.03
2023-04-28T15:12:43.407Z,100888.25
2023-04-28T15:15:13.857Z,100887.50
2023-04-28T15:17:46.998Z,100876.91
2023-04-28T15:20:16.888Z,100887.59
2023-04-28T15:22:52.123Z,100880.03
2023-04-28T15:25:26.423Z,100879.25
2023-04-28T15:28:00.027Z,100878.41
2023-04-28T15:30:33.678Z,100880.38
2023-04-28T15:33:06.345Z,100876.28
2023-04-28T15:35:36.726Z,100874.81
2023-04-28T15:38:09.454Z,100881.69
2023-04-28T15:40:41.426Z,100870.84
2023-04-28T15:43:20.421Z,100867.44
2023-04-28T15:45:50.243Z,100877.47
2023-04-28T15:48:23.488Z,100872.28
2023-04-28T15:51:02.350Z,100868.75
2023-04-28T15:53:35.039Z,100868.97
2023-04-28T15:56:06.631Z,100878.81
2023-04-28T15:58:40.666Z,100882.63
2023-04-28T16:01:13.757Z,100889.16
2023-04-28T16:03:44.787Z,100887.59
2023-04-28T16:06:19.808Z,100884.31
2023-04-28T16:08:57.145Z,100887.88
2023-04-28T16:11:35.078Z,100884.47
2023-04-28T16:14:08.549Z,100890.53
2023-04-28T16:16:42.661Z,100888.53
2023-04-28T16:19:12.476Z,100877.16
2023-04-28T16:21:44.774Z,100885.16
2023-04-28T16:24:25.406Z,100895.09
2023-04-28T16:26:55.337Z,100900.03
2023-04-28T16:29:53.201Z,100903.81
2023-04-28T16:32:25.199Z,100908.56
2023-04-28T16:35:00.056Z,100912.25
2023-04-28T16:37:29.892Z,100918.56
2023-04-28T16:40:05.419Z,100916.97
2023-04-28T16:42:39.786Z,100910.78
2023-04-28T16:45:13.718Z,100909.06
2023-04-28T16:47:45.249Z,100911.72
2023-04-28T16:50:20.767Z,100901.06
2023-04-28T16:52:52.978Z,100905.38
2023-04-28T16:55:28.181Z,100915.19
2023-04-28T16:58:00.302Z,100914.44
2023-04-28T17:00:32.768Z,100911.81
2023-04-28T17:03:06.077Z,100906.53
2023-04-28T17:05:37.548Z,100914.28
2023-04-28T17:08:10.299Z,100913.44
2023-04-28T17:10:42.890Z,100911.59
2023-04-28T17:13:26.444Z,100910.66
2023-04-28T17:15:58.865Z,100906.25
2023-04-28T17:18:32.095Z,100914.28
2023-04-28T17:21:04.542Z,100915.97
2023-04-28T17:26:23.454Z,100913.56
2023-04-28T17:28:53.645Z,100922.41
2023-04-28T17:31:39.319Z,100925.81
2023-04-28T17:34:12.864Z,100926.56
2023-04-28T17:36:44.338Z,100933.38
2023-04-28T17:39:16.737Z,100935.63
2023-04-28T17:41:49.330Z,100944.09
2023-04-28T17:44:19.177Z,100942.13
2023-04-28T17:46:49.039Z,100953.19
2023-04-28T17:49:20.737Z,100958.53
2023-04-28T17:51:54.032Z,100953.75
2023-04-28T17:54:27.273Z,100956.91
2023-04-28T17:57:02.971Z,100952.59
2023-04-28T17:59:37.336Z,100957.97
2023-04-28T18:02:12.166Z,100963.28
2023-04-28T18:04:46.271Z,100968.50
2023-04-28T18:07:21.590Z,100971.09
2023-04-28T18:09:54.696Z,100972.78
2023-04-28T18:12:27.514Z,100969.81
2023-04-28T18:14:58.029Z,100965.28
2023-04-28T18:17:27.947Z,100974.94
2023-04-28T18:19:58.052Z,100985.53
2023-04-28T18:22:28.265Z,100976.78
2023-04-28T18:24:58.701Z,100979.50
2023-04-28T18:27:31.147Z,100986.47
2023-04-28T18:30:01.024Z,100988.94
2023-04-28T18:32:31.204Z,100985.28
2023-04-28T18:35:01.057Z,100980.19
2023-04-28T18:37:31.245Z,100982.97
2023-04-28T18:40:01.156Z,100982.72
2023-04-28T18:42:34.324Z,100982.72
2023-04-28T18:45:06.194Z,100989.94
2023-04-28T18:47:36.149Z,100987.19
2023-04-28T18:50:07.345Z,100994.84
2023-04-28T18:52:37.159Z,100997.53
2023-04-28T18:55:07.461Z,101002.88
2023-04-28T18:57:40.735Z,101004.66
2023-04-28T19:00:12.099Z,101012.72
2023-04-28T19:02:42.046Z,101006.69
2023-04-28T19:05:14.811Z,101016.47
2023-04-28T19:07:45.465Z,101017.91
2023-04-28T19:10:22.390Z,101035.16
2023-04-28T19:12:56.240Z,101036.56
2023-04-28T19:15:27.092Z,101042.03
2023-04-28T19:17:57.499Z,101051.75
2023-04-28T19:20:27.387Z,101053.56
2023-04-28T19:22:57.223Z,101056.31
2023-04-28T19:25:27.009Z,101060.78
2023-04-28T19:27:59.437Z,101063.31
2023-04-28T19:30:30.420Z,101061.47
2023-04-28T19:33:00.362Z,101067.66
2023-04-28T19:35:30.222Z,101068.50
2023-04-28T19:38:00.037Z,101068.69
2023-04-28T19:40:30.669Z,101075.69
2023-04-28T19:43:04.081Z,101073.09
2023-04-28T19:45:44.089Z,101077.41
2023-04-28T19:48:19.033Z,101091.50
2023-04-28T19:50:51.614Z,101092.47
2023-04-28T19:53:22.969Z,101101.25
2023-04-28T19:55:52.765Z,101104.78
2023-04-28T19:58:25.177Z,101112.63
2023-04-28T20:00:54.981Z,101097.66
2023-04-28T20:03:24.927Z,101104.63
2023-04-28T20:05:54.897Z,101111.56
2023-04-28T20:08:27.796Z,101114.19
2023-04-28T20:10:57.725Z,101119.50
2023-04-28T20:13:30.131Z,101124.56
2023-04-28T20:16:00.050Z,101120.06
2023-04-28T20:18:31.284Z,101124.44
2023-04-28T20:21:04.901Z,101125.44
2023-04-28T20:23:34.697Z,101128.03
2023-04-28T20:26:05.552Z,101134.97
2023-04-28T20:28:37.987Z,101128.69
2023-04-28T20:31:10.860Z,101145.44
2023-04-28T20:33:40.745Z,101141.84
2023-04-28T20:36:10.720Z,101140.13
2023-04-28T20:38:40.549Z,101145.31
2023-04-28T20:41:10.678Z,101150.41
2023-04-28T20:43:43.216Z,101159.00
2023-04-28T20:46:16.972Z,101153.69
2023-04-28T20:48:46.852Z,101157.91
2023-04-28T20:51:17.047Z,101159.38
2023-04-28T20:53:46.852Z,101155.78
2023-04-28T20:56:19.010Z,101165.50
2023-04-28T20:58:51.405Z,101167.34
2023-04-28T21:01:21.547Z,101156.75
2023-04-28T21:03:51.661Z,101165.66
2023-04-28T21:06:23.257Z,101169.84
2023-04-28T21:08:53.173Z,101162.00
2023-04-28T21:11:23.016Z,101170.00
2023-04-28T21:13:55.427Z,101170.69
2023-04-28T21:16:25.314Z,101171.53
2023-04-28T21:18:55.187Z,101174.03
2023-04-28T21:21:25.036Z,101181.59
2023-04-28T21:23:55.676Z,101189.19
2023-04-28T21:26:27.040Z,101195.47
2023-04-28T21:28:59.547Z,101199.97
2023-04-28T21:31:29.576Z,101197.53
2023-04-28T21:33:59.426Z,101201.88
2023-04-28T21:36:29.217Z,101207.06
2023-04-28T21:39:01.395Z,101207.78
2023-04-28T21:41:31.261Z,101216.09
2023-04-28T21:44:03.701Z,101214.78
2023-04-28T21:46:34.423Z,101224.91
2023-04-28T21:49:04.315Z,101223.16
2023-04-28T21:51:34.664Z,101232.13
2023-04-28T21:54:04.856Z,101238.03
2023-04-28T21:56:34.684Z,101238.22
2023-04-28T21:59:07.148Z,101242.78
2023-04-28T22:01:37.238Z,101253.44
2023-04-28T22:04:09.026Z,101244.66
2023-04-28T22:06:43.445Z,101253.34
2023-04-28T22:09:13.893Z,101257.22
2023-04-28T22:11:43.725Z,101265.72
2023-04-28T22:14:35.123Z,101262.34
2023-04-28T22:17:06.399Z,101265.31
2023-04-28T22:19:36.202Z,101266.16
2023-04-28T22:22:07.211Z,101269.78
2023-04-28T22:24:37.306Z,101276.91
2023-04-28T22:27:07.338Z,101268.97
2023-04-28T22:29:39.741Z,101279.53
2023-04-28T22:32:10.998Z,101280.06
2023-04-28T22:34:41.040Z,101287.97
2023-04-28T22:37:11.077Z,101284.28
2023-04-28T22:39:41.081Z,101297.22
2023-04-28T22:42:11.043Z,101296.47
2023-04-28T22:44:43.498Z,101305.16
2023-04-28T22:47:13.365Z,101309.13
2023-04-28T22:49:43.656Z,101301.97
2023-04-28T22:52:13.466Z,101309.13
2023-04-28T22:54:43.299Z,101303.09
2023-04-28T22:57:13.090Z,101310.31
2023-04-28T22:59:45.726Z,101310.31
2023-04-28T23:02:15.564Z,101317.19
2023-04-28T23:04:48.526Z,101311.97
2023-04-28T23:07:20.870Z,101312.06
2023-04-28T23:09:50.812Z,101317.66
2023-04-28T23:12:21.335Z,101318.59
2023-04-28T23:14:54.119Z,101319.28
2023-04-28T23:17:23.944Z,101316.94
2023-04-28T23:19:53.820Z,101324.81
2023-04-28T23:22:23.636Z,101334.63
2023-04-28T23:24:53.493Z,101325.94
2023-04-28T23:27:23.338Z,101331.72
2023-04-28T23:29:56.119Z,101330.25
2023-04-28T23:32:26.020Z,101323.50
2023-04-28T23:34:55.892Z,101325.41
2023-04-28T23:37:28.831Z,101326.06
2023-04-28T23:39:58.692Z,101338.09
2023-04-28T23:42:29.217Z,101332.19
2023-04-28T23:45:01.739Z,101332.66
2023-04-28T23:47:31.622Z,101337.13
2023-04-28T23:50:01.492Z,101343.59
2023-04-28T23:52:32.841Z,101347.63
2023-04-28T23:55:02.927Z,101345.41
2023-04-28T23:57:32.810Z,101340.09
